FKKN

N'Gaoundéré Airport

N'Gaoundéré, Cameroon
METAR FKKN 201500Z 34006KT 7000 NSC 33/16 Q1011
Observed Flight Rules
Feb-20 @ 15:00 UTC (2 hours ago) Marginal Visual Flight Rules
Wind Visibility Clouds
340° at 6 knots 7,001 meters
  • Clear skies
Temperatures Readings
Current 33°C / 91°F
Dewpoint 16°C / 61°F
Humidity 36%
Altimeter 29.85" Hg
Pressure 1011 hPa
Elevation 1104
METAR FKKN 201500Z 34006KT 7000 NSC 33/16 Q1011
Observed Flight Rules
Feb-20 @ 15:00 UTC
(2 hours ago)
MVFR
Wind Visibility
340° at 6 knots 7,001 meters
Clouds
  • Clear skies
Temperature Dewpoint
33°C / 91°F 16°C / 61°F
Humidity Altimeter Pressure
36% 29.85" Hg 1011 hPa